Time;durP1;ratioP1;P1;durP2;ratioP2;P2;SDS_P1;SDS_P2;PMS_P1;PMS_P2;Temp;Humidity;BMP_temperature;BMP_pressure;BME280_temperature;BME280_humidity;BME280_pressure;Samples;Min_cycle;Max_cycle;Signal;HPM_P1;HPM_P2
2022/11/22 04:01:13;;;;;;;0.70;0.70;;;7.90;88.80;;;;;;5797996;23;21006;-74
2022/11/22 04:03:40;;;;;;;0.50;0.50;;;7.80;88.60;;;;;;4975071;28;20438;-72
2022/11/22 04:06:06;;;;;;;0.50;0.50;;;7.80;89.00;;;;;;4974807;28;20442;-72
2022/11/22 04:08:33;;;;;;;0.70;0.70;;;7.80;89.00;;;;;;4974944;28;20442;-72
2022/11/22 04:11:00;;;;;;;0.60;0.60;;;7.90;88.80;;;;;;4974835;28;20477;-72
2022/11/22 04:15:05;;;;;;;0.60;0.60;;;8.00;88.40;;;;;;4974896;28;20454;-72
2022/11/22 04:16:14;;;;;;;0.60;0.60;;;7.90;88.00;;;;;;4975836;28;20521;-72
2022/11/22 04:18:40;;;;;;;0.53;0.53;;;8.00;88.00;;;;;;4974803;28;20485;-72
2022/11/22 04:26:32;;;;;;;0.60;0.60;;;8.10;87.20;;;;;;4973789;28;20492;-72
2022/11/22 04:28:58;;;;;;;0.60;0.60;;;8.10;87.30;;;;;;4974700;28;20438;-72
2022/11/22 04:34:07;;;;;;;0.60;0.60;;;8.10;87.20;;;;;;4963010;28;20434;-73
2022/11/22 04:36:34;;;;;;;0.60;0.60;;;8.00;86.90;;;;;;4974589;28;20455;-73
2022/11/22 04:39:00;;;;;;;0.70;0.70;;;8.00;87.20;;;;;;4974466;28;20486;-71
2022/11/22 04:41:27;;;;;;;0.70;0.70;;;8.00;87.20;;;;;;4974474;28;20477;-71
2022/11/22 04:46:39;;;;;;;0.60;0.60;;;8.10;86.90;;;;;;4974261;28;20461;-73
2022/11/22 04:49:06;;;;;;;0.60;0.60;;;8.10;86.40;;;;;;4974431;28;20445;-73
2022/11/22 04:54:17;;;;;;;0.87;0.77;;;8.10;85.70;;;;;;4974478;28;20410;-73
2022/11/22 04:56:43;;;;;;;0.50;0.50;;;8.10;85.60;;;;;;4974334;28;20453;-73
2022/11/22 04:59:10;;;;;;;0.60;0.60;;;8.10;85.60;;;;;;4973984;28;20478;-73
2022/11/22 05:01:37;;;;;;;0.80;0.80;;;8.00;85.20;;;;;;4974039;28;20473;-73
2022/11/22 05:04:05;;;;;;;0.57;0.57;;;7.70;86.40;;;;;;4974334;28;20453;-74
2022/11/22 05:06:31;;;;;;;0.70;0.70;;;7.80;86.10;;;;;;4974292;28;20463;-73
2022/11/22 05:08:58;;;;;;;0.60;0.60;;;7.80;85.80;;;;;;4974253;28;20449;-73
2022/11/22 05:11:25;;;;;;;0.60;0.57;;;7.80;85.40;;;;;;4974194;28;20474;-74
2022/11/22 05:13:51;;;;;;;0.50;0.50;;;7.80;85.40;;;;;;4974210;28;20454;-74
2022/11/22 05:16:18;;;;;;;0.60;0.60;;;7.80;85.30;;;;;;4974161;28;20454;-73
2022/11/22 05:18:57;;;;;;;0.60;0.60;;;7.80;85.30;;;;;;4974112;28;20485;-73
2022/11/22 05:21:27;;;;;;;0.70;0.70;;;7.80;85.30;;;;;;4974105;28;20478;-74
2022/11/22 05:23:53;;;;;;;0.60;0.60;;;7.80;85.10;;;;;;4974130;28;20450;-74
2022/11/22 05:26:20;;;;;;;0.63;0.60;;;7.70;85.20;;;;;;4974047;28;20450;-74
2022/11/22 05:28:47;;;;;;;0.60;0.50;;;7.70;85.30;;;;;;4973764;28;20468;-74
2022/11/22 05:31:16;;;;;;;0.60;0.60;;;7.80;85.00;;;;;;4974688;28;20528;-74
2022/11/22 05:33:45;;;;;;;0.70;0.70;;;7.70;85.00;;;;;;4974028;28;20542;-74
2022/11/22 05:36:12;;;;;;;0.60;0.60;;;7.70;84.80;;;;;;4973996;28;20450;-74
2022/11/22 05:38:40;;;;;;;0.60;0.60;;;7.70;84.80;;;;;;4973918;28;20486;-74
2022/11/22 05:41:09;;;;;;;0.60;0.60;;;7.70;84.70;;;;;;4973589;28;20480;-74
2022/11/22 05:43:36;;;;;;;0.60;0.60;;;7.70;84.70;;;;;;4976542;28;20459;-73
2022/11/22 05:46:07;;;;;;;0.67;0.60;;;7.70;84.80;;;;;;4977383;28;20820;-74
2022/11/22 05:48:34;;;;;;;1.47;0.90;;;7.70;84.90;;;;;;4977272;28;20454;-73
2022/11/22 05:51:04;;;;;;;0.70;0.70;;;7.70;85.20;;;;;;4977225;28;20477;-73
2022/11/22 05:53:31;;;;;;;0.60;0.60;;;7.70;85.10;;;;;;4977276;28;20470;-73
2022/11/22 05:56:03;;;;;;;0.60;0.60;;;7.60;85.10;;;;;;4976901;28;20941;-72
2022/11/22 05:58:30;;;;;;;0.60;0.60;;;7.60;85.10;;;;;;4976807;28;20466;-73
2022/11/22 06:01:01;;;;;;;0.60;0.60;;;7.60;85.10;;;;;;4976900;28;20489;-72
2022/11/22 06:03:28;;;;;;;0.70;0.70;;;7.60;85.10;;;;;;4977276;28;20843;-72
2022/11/22 06:05:55;;;;;;;0.63;0.63;;;7.60;85.20;;;;;;4977140;28;20457;-72
2022/11/22 06:08:21;;;;;;;0.70;0.70;;;7.60;85.20;;;;;;4976969;28;20449;-71
2022/11/22 06:10:48;;;;;;;0.60;0.60;;;7.60;85.20;;;;;;4977005;28;20477;-73
2022/11/22 06:13:16;;;;;;;0.70;0.70;;;7.60;85.50;;;;;;4977289;28;20811;-73
2022/11/22 06:15:43;;;;;;;0.53;0.53;;;7.70;85.30;;;;;;4977011;28;20458;-72
2022/11/22 06:18:09;;;;;;;0.60;0.60;;;7.70;85.30;;;;;;4976872;28;20454;-73
2022/11/22 06:20:36;;;;;;;0.63;0.63;;;7.70;85.10;;;;;;4976422;28;20805;-73
2022/11/22 06:23:03;;;;;;;0.80;0.80;;;7.70;85.20;;;;;;4976788;28;20457;-72
2022/11/22 06:25:29;;;;;;;0.60;0.60;;;7.60;85.10;;;;;;4976298;28;20454;-71
2022/11/22 06:27:58;;;;;;;1.00;0.90;;;7.60;85.60;;;;;;4976642;28;20438;-73
2022/11/22 06:30:26;;;;;;;0.60;0.60;;;7.60;85.50;;;;;;4976509;28;20473;-72
2022/11/22 06:32:53;;;;;;;0.77;0.77;;;7.60;85.50;;;;;;4976555;28;20450;-73
2022/11/22 06:35:20;;;;;;;0.70;0.70;;;7.60;85.70;;;;;;4976488;28;20450;-74
2022/11/22 06:37:48;;;;;;;0.67;0.67;;;7.60;85.70;;;;;;4976402;28;20481;-75
2022/11/22 06:40:17;;;;;;;0.60;0.60;;;7.60;85.70;;;;;;4976335;28;20533;-75
2022/11/22 06:42:44;;;;;;;0.70;0.70;;;7.60;85.80;;;;;;4976355;28;20474;-73
2022/11/22 06:45:11;;;;;;;0.60;0.60;;;7.60;85.80;;;;;;4976285;28;20463;-71
2022/11/22 06:47:39;;;;;;;0.60;0.60;;;7.70;85.70;;;;;;4976023;28;20832;-75
2022/11/22 06:50:07;;;;;;;0.50;0.50;;;7.70;85.60;;;;;;4975889;28;20505;-74
2022/11/22 06:52:33;;;;;;;0.80;0.80;;;7.70;85.70;;;;;;4975967;28;20478;-75
2022/11/22 06:55:00;;;;;;;0.70;0.60;;;7.70;85.80;;;;;;4975531;28;20980;-74
2022/11/22 06:57:27;;;;;;;0.80;0.80;;;7.70;85.60;;;;;;4976026;28;20466;-75
2022/11/22 06:59:53;;;;;;;0.60;0.60;;;7.80;85.60;;;;;;4975873;28;20537;-75
2022/11/22 07:02:20;;;;;;;0.60;0.60;;;7.80;85.60;;;;;;4975631;28;20482;-76
2022/11/22 07:04:48;;;;;;;0.87;0.70;;;7.80;85.50;;;;;;4975915;28;20455;-75
2022/11/22 07:07:15;;;;;;;0.70;0.70;;;7.80;85.50;;;;;;4975865;28;20446;-75
2022/11/22 07:09:42;;;;;;;0.60;0.60;;;7.90;85.30;;;;;;4975747;28;20457;-76
2022/11/22 07:12:09;;;;;;;0.70;0.70;;;7.90;85.20;;;;;;4975719;28;20483;-76
2022/11/22 07:14:36;;;;;;;0.87;0.87;;;7.90;85.20;;;;;;4975373;28;20831;-74
2022/11/22 07:17:03;;;;;;;0.80;0.80;;;7.90;85.20;;;;;;4975615;28;20446;-76
2022/11/22 07:19:29;;;;;;;0.70;0.70;;;7.90;85.20;;;;;;4975501;28;20849;-75
2022/11/22 07:21:57;;;;;;;0.80;0.80;;;7.90;85.30;;;;;;4975439;28;20477;-74
2022/11/22 07:24:24;;;;;;;0.90;0.90;;;7.90;85.10;;;;;;4975287;28;20813;-75
2022/11/22 07:26:51;;;;;;;0.80;0.80;;;7.90;85.10;;;;;;4975529;28;20450;-75
2022/11/22 07:29:17;;;;;;;0.83;0.83;;;8.00;85.00;;;;;;4975172;28;20953;-75
2022/11/22 07:31:46;;;;;;;0.90;0.90;;;7.90;84.90;;;;;;4975389;28;20470;-75
2022/11/22 07:34:12;;;;;;;0.80;0.80;;;7.90;84.90;;;;;;4975392;28;20454;-75
2022/11/22 07:36:39;;;;;;;0.80;0.80;;;7.60;86.00;;;;;;4975493;28;20450;-75
2022/11/22 07:39:07;;;;;;;0.77;0.77;;;7.70;85.50;;;;;;4975263;28;20474;-75
2022/11/22 07:41:34;;;;;;;0.63;0.63;;;7.80;85.50;;;;;;4975136;28;20830;-75
2022/11/22 07:44:01;;;;;;;0.80;0.80;;;7.80;85.40;;;;;;4975223;28;20450;-75
2022/11/22 07:46:30;;;;;;;0.70;0.70;;;7.90;85.20;;;;;;4975124;28;20458;-75
2022/11/22 07:48:57;;;;;;;0.70;0.60;;;7.70;85.50;;;;;;4975123;28;20446;-75
2022/11/22 07:51:24;;;;;;;0.80;0.60;;;7.60;85.50;;;;;;4975304;28;20474;-74
2022/11/22 07:53:51;;;;;;;0.70;0.70;;;7.50;86.10;;;;;;4974750;28;20793;-75
2022/11/22 07:56:19;;;;;;;0.80;0.80;;;7.50;86.50;;;;;;4974690;28;20450;-76
2022/11/22 07:58:46;;;;;;;0.70;0.70;;;7.60;86.30;;;;;;4974977;28;20485;-75
2022/11/22 08:01:15;;;;;;;0.63;0.63;;;7.40;86.60;;;;;;4974742;28;20478;-75
2022/11/22 08:03:42;;;;;;;0.50;0.50;;;7.40;86.90;;;;;;4974989;28;20438;-74
2022/11/22 08:06:11;;;;;;;0.63;0.63;;;7.50;86.80;;;;;;4974051;28;20454;-74
2022/11/22 08:08:38;;;;;;;0.80;0.80;;;7.60;86.60;;;;;;4974487;28;20980;-74
2022/11/22 08:11:05;;;;;;;0.70;0.70;;;7.80;86.10;;;;;;4974452;28;20474;-74
2022/11/22 08:13:34;;;;;;;0.70;0.70;;;7.80;86.30;;;;;;4974765;28;20453;-74
2022/11/22 08:16:06;;;;;;;0.60;0.60;;;7.90;86.00;;;;;;4974763;28;20451;-74
2022/11/22 08:18:33;;;;;;;0.70;0.70;;;7.90;86.00;;;;;;4974624;28;20447;-74
2022/11/22 08:21:05;;;;;;;0.60;0.60;;;7.90;86.00;;;;;;4974702;28;20473;-74
2022/11/22 08:23:32;;;;;;;0.50;0.50;;;7.80;86.30;;;;;;4974654;28;20462;-74
2022/11/22 08:25:59;;;;;;;0.60;0.60;;;7.80;86.50;;;;;;4974668;28;20848;-74
2022/11/22 08:28:26;;;;;;;0.63;0.63;;;7.80;86.60;;;;;;4974618;28;20454;-74
2022/11/22 08:31:01;;;;;;;0.93;0.80;;;7.90;86.60;;;;;;4975076;28;20949;-74
2022/11/22 08:33:27;;;;;;;0.70;0.70;;;8.00;86.30;;;;;;4974587;28;20461;-74
2022/11/22 08:35:54;;;;;;;0.60;0.60;;;8.00;86.30;;;;;;4974522;28;20454;-74
2022/11/22 08:38:21;;;;;;;0.70;0.70;;;8.10;86.20;;;;;;4974508;28;20457;-74
2022/11/22 08:40:48;;;;;;;1.10;0.80;;;8.20;85.90;;;;;;4974381;28;20557;-74
2022/11/22 08:43:14;;;;;;;0.70;0.70;;;8.30;85.80;;;;;;4974481;28;20446;-74
2022/11/22 08:45:41;;;;;;;0.60;0.60;;;8.40;85.80;;;;;;4974437;28;20450;-74
2022/11/22 08:48:09;;;;;;;0.60;0.60;;;8.30;85.90;;;;;;4974063;28;20969;-74
2022/11/22 08:50:36;;;;;;;0.70;0.70;;;8.40;85.90;;;;;;4974307;28;20488;-74
2022/11/22 08:53:03;;;;;;;0.60;0.60;;;8.30;85.40;;;;;;4974376;28;20450;-74
2022/11/22 08:55:29;;;;;;;0.80;0.80;;;8.20;85.40;;;;;;4974366;28;20450;-74
2022/11/22 08:57:58;;;;;;;0.87;0.70;;;8.30;86.20;;;;;;4973985;28;20970;-74
2022/11/22 09:00:25;;;;;;;0.60;0.60;;;8.40;85.60;;;;;;4974036;28;20486;-75
2022/11/22 09:02:53;;;;;;;0.70;0.70;;;8.40;86.10;;;;;;4973888;28;20946;-74
2022/11/22 09:05:21;;;;;;;0.60;0.60;;;8.30;86.00;;;;;;4973903;28;20934;-74
2022/11/22 09:07:47;;;;;;;0.70;0.70;;;8.40;86.20;;;;;;4974243;28;20450;-74
2022/11/22 09:10:14;;;;;;;0.70;0.70;;;8.60;85.90;;;;;;4974230;28;20454;-74
2022/11/22 09:12:44;;;;;;;0.90;0.90;;;8.70;85.10;;;;;;4974069;28;20469;-74
2022/11/22 09:15:11;;;;;;;0.60;0.60;;;8.80;85.60;;;;;;4974173;28;20454;-74
2022/11/22 09:17:38;;;;;;;0.83;0.80;;;8.80;85.00;;;;;;4976954;28;20457;-74
2022/11/22 09:20:06;;;;;;;0.67;0.67;;;8.90;84.60;;;;;;4977479;28;20999;-74
2022/11/22 09:22:34;;;;;;;0.70;0.70;;;8.60;85.00;;;;;;4977413;28;21004;-74
2022/11/22 09:25:01;;;;;;;0.80;0.80;;;8.50;85.60;;;;;;4977746;28;20452;-74
2022/11/22 09:27:28;;;;;;;1.20;1.10;;;8.50;85.40;;;;;;4977726;28;20454;-74
2022/11/22 09:29:54;;;;;;;0.60;0.60;;;8.50;85.50;;;;;;4977668;28;20450;-74
2022/11/22 09:32:21;;;;;;;0.60;0.60;;;8.50;85.70;;;;;;4977585;28;20477;-74
2022/11/22 09:34:48;;;;;;;0.60;0.60;;;8.50;85.70;;;;;;4977631;28;20453;-74
2022/11/22 09:37:17;;;;;;;0.90;0.90;;;8.30;86.40;;;;;;4977535;28;20457;-74
2022/11/22 09:39:45;;;;;;;0.90;0.90;;;8.20;86.80;;;;;;4977484;28;20485;-74
2022/11/22 09:42:47;;;;;;;0.87;0.87;;;8.30;86.50;;;;;;4977328;28;20469;-74
2022/11/22 09:45:45;;;;;;;0.70;0.70;;;8.10;86.40;;;;;;4977188;28;20842;-74
2022/11/22 09:48:43;;;;;;;0.97;0.97;;;8.10;87.20;;;;;;4977321;28;20457;-74
2022/11/22 09:51:13;;;;;;;0.60;0.60;;;8.20;87.40;;;;;;4973715;28;20478;-75
2022/11/22 09:53:45;;;;;;;0.73;0.70;;;8.20;87.20;;;;;;4977254;28;20435;-75
2022/11/22 09:56:15;;;;;;;2.87;0.80;;;8.10;87.10;;;;;;4977179;28;20439;-75
2022/11/22 09:58:47;;;;;;;0.77;0.77;;;8.10;87.20;;;;;;4977130;28;20435;-75
2022/11/22 10:01:18;;;;;;;0.70;0.70;;;8.00;87.40;;;;;;4976854;28;20522;-75
2022/11/22 10:03:48;;;;;;;0.80;0.80;;;7.90;88.00;;;;;;4976756;28;20807;-75
2022/11/22 10:06:22;;;;;;;1.00;0.70;;;8.00;87.40;;;;;;4976999;28;20450;-75
2022/11/22 10:08:59;;;;;;;0.70;0.70;;;7.90;87.00;;;;;;4977038;28;20438;-75
2022/11/22 10:11:34;;;;;;;0.70;0.70;;;7.90;86.40;;;;;;4976936;28;20476;-75
2022/11/22 10:14:04;;;;;;;0.80;0.80;;;7.90;86.30;;;;;;4976601;28;20917;-75
2022/11/22 10:16:38;;;;;;;0.70;0.70;;;8.00;86.40;;;;;;4978289;28;20435;-75
2022/11/22 10:19:11;;;;;;;0.70;0.70;;;8.00;85.90;;;;;;4976822;28;20453;-75
2022/11/22 10:21:38;;;;;;;0.77;0.70;;;7.90;86.20;;;;;;4976702;28;20474;-75
2022/11/22 10:24:05;;;;;;;0.60;0.60;;;7.90;85.90;;;;;;4976680;28;20450;-75
2022/11/22 10:26:35;;;;;;;0.70;0.70;;;7.80;85.90;;;;;;4976332;28;20887;-75
2022/11/22 10:29:12;;;;;;;0.60;0.60;;;7.90;87.10;;;;;;4975787;28;20454;-75
2022/11/22 10:31:47;;;;;;;0.60;0.60;;;8.00;86.20;;;;;;4976475;28;20468;-75
2022/11/22 10:34:21;;;;;;;1.17;1.17;;;8.10;85.40;;;;;;4976511;28;20438;-75
2022/11/22 10:36:54;;;;;;;0.80;0.80;;;8.00;85.10;;;;;;4976479;28;20442;-74
2022/11/22 10:39:41;;;;;;;0.80;0.80;;;7.90;84.70;;;;;;4976367;28;20446;-75
2022/11/22 10:42:25;;;;;;;0.60;0.60;;;7.80;84.80;;;;;;4976035;28;20517;-75
2022/11/22 10:44:57;;;;;;;0.70;0.70;;;7.80;84.30;;;;;;4976376;28;20493;-75
2022/11/22 10:47:39;;;;;;;0.90;0.90;;;7.80;83.80;;;;;;4976041;28;20918;-74
2022/11/22 10:50:16;;;;;;;1.00;0.70;;;7.60;84.10;;;;;;4976296;28;20430;-75
2022/11/22 10:52:52;;;;;;;0.63;0.60;;;7.60;83.80;;;;;;4976140;28;20478;-74
2022/11/22 10:55:31;;;;;;;0.70;0.70;;;7.60;82.90;;;;;;4976146;28;20442;-75
2022/11/22 10:58:08;;;;;;;0.50;0.50;;;7.70;82.50;;;;;;4975807;28;20902;-74
2022/11/22 11:00:39;;;;;;;1.00;0.90;;;7.80;83.60;;;;;;4975604;28;20874;-74
2022/11/22 11:03:15;;;;;;;0.80;0.80;;;7.80;82.70;;;;;;4976021;28;20446;-75
2022/11/22 11:05:49;;;;;;;0.70;0.70;;;7.80;82.90;;;;;;4975967;28;20431;-75
2022/11/22 11:08:21;;;;;;;0.60;0.60;;;7.80;82.80;;;;;;4975934;28;20431;-75
2022/11/22 11:10:48;;;;;;;0.90;0.90;;;7.80;82.90;;;;;;4975756;28;20458;-75
2022/11/22 11:13:22;;;;;;;0.63;0.63;;;8.00;83.50;;;;;;4975480;28;20799;-75
2022/11/22 11:15:52;;;;;;;0.60;0.60;;;8.10;82.40;;;;;;4975793;28;20431;-75
2022/11/22 11:18:25;;;;;;;0.60;0.60;;;8.20;82.50;;;;;;4975751;28;20418;-75
2022/11/22 11:20:52;;;;;;;0.60;0.60;;;8.20;81.60;;;;;;4975478;28;20494;-75
2022/11/22 11:23:19;;;;;;;0.70;0.70;;;8.10;80.30;;;;;;4975309;28;20817;-75
2022/11/22 11:25:47;;;;;;;0.80;0.80;;;8.00;80.80;;;;;;4975481;28;20446;-75
2022/11/22 11:28:20;;;;;;;0.60;0.60;;;8.00;80.80;;;;;;4976565;28;20513;-74
2022/11/22 11:30:49;;;;;;;0.60;0.60;;;8.10;81.30;;;;;;4975469;28;20467;-75
2022/11/22 11:33:20;;;;;;;0.70;0.70;;;8.20;80.70;;;;;;4975159;28;20523;-74
2022/11/22 11:35:47;;;;;;;0.60;0.60;;;8.10;80.10;;;;;;4975460;28;20485;-75
2022/11/22 11:38:34;;;;;;;0.60;0.60;;;8.00;79.30;;;;;;4975386;28;20450;-74
2022/11/22 11:41:21;;;;;;;0.70;0.70;;;7.80;79.10;;;;;;4975200;28;20493;-75
2022/11/22 11:43:50;;;;;;;0.60;0.60;;;7.80;79.90;;;;;;4975313;28;20430;-75
2022/11/22 11:46:19;;;;;;;0.60;0.50;;;7.80;80.20;;;;;;4975224;28;20462;-74
2022/11/22 11:48:46;;;;;;;0.70;0.70;;;7.90;80.00;;;;;;4974878;28;20829;-74
2022/11/22 11:51:24;;;;;;;0.70;0.70;;;7.90;79.60;;;;;;4975062;28;20492;-75
2022/11/22 11:53:56;;;;;;;1.03;0.60;;;7.90;79.90;;;;;;4975096;28;20442;-75
2022/11/22 11:56:48;;;;;;;0.70;0.70;;;8.00;79.30;;;;;;4975120;28;20434;-74
2022/11/22 11:59:19;;;;;;;0.60;0.60;;;8.20;80.50;;;;;;4975027;28;20439;-75
2022/11/22 12:02:04;;;;;;;0.70;0.70;;;8.30;80.00;;;;;;4974589;28;20494;-75
2022/11/22 12:04:34;;;;;;;0.60;0.60;;;8.40;78.00;;;;;;4974954;28;20434;-75
2022/11/22 12:07:17;;;;;;;0.87;0.80;;;8.50;78.70;;;;;;4974917;28;20431;-75
2022/11/22 12:09:46;;;;;;;0.60;0.60;;;8.50;78.60;;;;;;4974988;28;20427;-75
2022/11/22 12:12:35;;;;;;;0.70;0.70;;;8.70;79.30;;;;;;4974810;28;20474;-75
2022/11/22 12:15:11;;;;;;;0.57;0.57;;;8.80;78.80;;;;;;4975037;28;20431;-75
2022/11/22 12:17:49;;;;;;;0.60;0.60;;;8.80;77.50;;;;;;4974914;28;20511;-76
2022/11/22 12:20:21;;;;;;;0.70;0.70;;;9.00;76.80;;;;;;4974816;28;20466;-75
2022/11/22 12:22:58;;;;;;;0.60;0.60;;;8.90;75.00;;;;;;4974730;28;20502;-75
2022/11/22 12:25:31;;;;;;;0.70;0.70;;;9.10;76.30;;;;;;4974839;28;20438;-75
2022/11/22 12:28:02;;;;;;;0.80;0.80;;;9.50;75.30;;;;;;4974725;28;20431;-75
2022/11/22 12:30:33;;;;;;;0.70;0.70;;;9.80;73.20;;;;;;4974671;28;20442;-75
2022/11/22 12:33:03;;;;;;;0.60;0.60;;;10.00;72.30;;;;;;4974419;28;20910;-75
2022/11/22 12:35:35;;;;;;;0.60;0.60;;;10.00;72.00;;;;;;4974907;28;20567;-74
2022/11/22 12:38:11;;;;;;;0.70;0.70;;;10.00;72.80;;;;;;4974585;28;20434;-75
2022/11/22 12:40:41;;;;;;;1.10;0.80;;;9.90;72.00;;;;;;4974413;28;20474;-75
2022/11/22 12:43:13;;;;;;;0.70;0.70;;;9.70;73.00;;;;;;4974423;28;20446;-75
2022/11/22 12:45:44;;;;;;;0.60;0.60;;;9.60;73.70;;;;;;4974460;28;20449;-75
2022/11/22 12:48:18;;;;;;;0.60;0.60;;;9.80;74.20;;;;;;4974473;28;20450;-75
2022/11/22 12:50:49;;;;;;;0.80;0.80;;;9.90;72.80;;;;;;4974391;28;20462;-75
2022/11/22 12:53:20;;;;;;;0.60;0.60;;;10.10;71.60;;;;;;4978427;28;20453;-75
2022/11/22 12:55:54;;;;;;;1.10;0.77;;;10.10;72.10;;;;;;4978266;28;20441;-75
2022/11/22 12:58:27;;;;;;;1.27;0.90;;;10.60;71.50;;;;;;4978252;28;20442;-75
2022/11/22 13:01:06;;;;;;;0.80;0.80;;;11.30;70.30;;;;;;4977787;28;21000;-75
2022/11/22 13:03:38;;;;;;;0.60;0.60;;;11.70;67.90;;;;;;4978105;28;20437;-75
2022/11/22 13:06:08;;;;;;;0.60;0.60;;;12.10;67.90;;;;;;4978131;28;20453;-75
2022/11/22 13:08:41;;;;;;;0.77;0.77;;;12.50;65.60;;;;;;4978111;28;20437;-75
2022/11/22 13:11:15;;;;;;;0.60;0.60;;;12.60;65.20;;;;;;4978039;28;20465;-75
2022/11/22 13:13:45;;;;;;;0.70;0.70;;;12.50;64.30;;;;;;4977993;28;20433;-75
2022/11/22 13:16:14;;;;;;;0.80;0.70;;;12.40;65.40;;;;;;4978728;28;20450;-75
2022/11/22 13:18:45;;;;;;;0.73;0.73;;;12.50;65.30;;;;;;4977904;28;20445;-75
2022/11/22 13:21:20;;;;;;;1.13;0.73;;;12.90;64.40;;;;;;4977772;28;20517;-75
2022/11/22 13:24:00;;;;;;;0.60;0.60;;;13.30;63.80;;;;;;4977918;28;20465;-75
2022/11/22 13:26:36;;;;;;;0.60;0.60;;;13.70;61.50;;;;;;4977853;28;20430;-75
2022/11/22 13:29:09;;;;;;;0.60;0.60;;;14.00;59.80;;;;;;4977444;28;20914;-75
2022/11/22 13:32:04;;;;;;;0.70;0.70;;;14.60;59.80;;;;;;4977816;28;20465;-75
2022/11/22 13:34:32;;;;;;;0.70;0.70;;;14.30;58.30;;;;;;4977620;28;20454;-75
2022/11/22 13:37:07;;;;;;;0.60;0.60;;;14.10;59.90;;;;;;4977809;28;20461;-75
2022/11/22 13:39:39;;;;;;;0.60;0.60;;;13.20;61.20;;;;;;4977622;28;20434;-75
2022/11/22 13:42:06;;;;;;;0.60;0.60;;;12.40;61.80;;;;;;4977438;28;20526;-74
2022/11/22 13:44:49;;;;;;;0.93;0.70;;;12.00;63.00;;;;;;4977409;28;20473;-75
2022/11/22 13:47:40;;;;;;;0.60;0.60;;;11.80;65.30;;;;;;4977452;28;20434;-75
2022/11/22 13:50:53;;;;;;;0.60;0.60;;;11.30;65.40;;;;;;4977311;28;20450;-74
2022/11/22 13:53:27;;;;;;;1.03;0.60;;;11.00;66.80;;;;;;4976859;28;20532;-75
2022/11/22 13:55:55;;;;;;;0.60;0.60;;;10.80;66.70;;;;;;4978004;28;20476;-74
2022/11/22 13:59:03;;;;;;;0.50;0.50;;;10.50;67.50;;;;;;4977122;28;20446;-74
2022/11/22 14:01:55;;;;;;;0.57;0.57;;;10.10;68.30;;;;;;4976629;28;20568;-75
2022/11/22 14:04:43;;;;;;;2.30;0.60;;;9.40;69.80;;;;;;4970163;28;20469;-75
2022/11/22 14:07:36;;;;;;;0.50;0.50;;;9.30;71.30;;;;;;4977053;28;20438;-75
2022/11/22 14:10:04;;;;;;;0.63;0.60;;;9.20;71.60;;;;;;4976637;28;20446;-75
2022/11/22 14:13:01;;;;;;;0.57;0.57;;;9.00;72.20;;;;;;4976871;28;20466;-75
2022/11/22 14:15:47;;;;;;;0.60;0.60;;;9.10;73.00;;;;;;4976942;28;20439;-75
2022/11/22 14:18:32;;;;;;;0.60;0.60;;;9.10;72.20;;;;;;4976892;28;20429;-75
2022/11/22 14:21:04;;;;;;;0.60;0.60;;;9.10;73.20;;;;;;4976723;28;20580;-75
2022/11/22 14:23:40;;;;;;;0.60;0.60;;;9.00;73.20;;;;;;4976552;28;20910;-75
2022/11/22 14:26:16;;;;;;;0.70;0.70;;;9.00;73.40;;;;;;4976746;28;20443;-75
2022/11/22 14:29:16;;;;;;;0.60;0.60;;;8.90;73.70;;;;;;4976313;28;20933;-75
2022/11/22 14:31:52;;;;;;;0.50;0.50;;;8.90;73.60;;;;;;4976565;28;20455;-75
2022/11/22 14:34:22;;;;;;;0.60;0.60;;;8.80;74.60;;;;;;4976637;28;20426;-75
2022/11/22 14:37:43;;;;;;;1.00;0.60;;;8.70;73.90;;;;;;4976364;28;20457;-75
2022/11/22 14:40:17;;;;;;;0.60;0.60;;;8.80;74.50;;;;;;4976447;28;20533;-75
2022/11/22 14:42:59;;;;;;;0.60;0.60;;;8.70;74.10;;;;;;4977120;28;20470;-75
2022/11/22 14:45:35;;;;;;;0.57;0.57;;;8.60;73.90;;;;;;4976302;28;20435;-75
2022/11/22 14:48:11;;;;;;;0.70;0.70;;;8.70;74.50;;;;;;4976339;28;20434;-75
2022/11/22 14:50:42;;;;;;;0.57;0.57;;;8.80;74.10;;;;;;4976175;28;20500;-75
2022/11/22 14:53:22;;;;;;;0.60;0.60;;;8.80;74.20;;;;;;4976238;28;20438;-75
2022/11/22 14:55:52;;;;;;;0.50;0.50;;;8.90;73.60;;;;;;4976158;28;20507;-75
2022/11/22 14:58:23;;;;;;;0.60;0.60;;;9.00;73.40;;;;;;4976090;28;20483;-75
2022/11/22 15:01:10;;;;;;;0.50;0.50;;;9.00;73.30;;;;;;4975698;28;20545;-75
2022/11/22 15:04:11;;;;;;;0.60;0.60;;;9.10;74.00;;;;;;4975982;28;20509;-75
2022/11/22 15:06:51;;;;;;;0.60;0.60;;;9.20;73.80;;;;;;4975926;28;20450;-75
2022/11/22 15:09:43;;;;;;;0.50;0.50;;;9.20;73.90;;;;;;4975962;28;20434;-75
2022/11/22 15:12:30;;;;;;;0.60;0.60;;;9.00;74.10;;;;;;4975866;28;20462;-75
2022/11/22 15:15:19;;;;;;;0.60;0.60;;;8.90;74.10;;;;;;4975531;28;20450;-75
2022/11/22 15:17:47;;;;;;;0.70;0.70;;;8.80;74.50;;;;;;4975471;28;20466;-75
2022/11/22 15:20:34;;;;;;;0.50;0.50;;;8.70;75.40;;;;;;4975697;28;20475;-75
2022/11/22 15:23:05;;;;;;;0.50;0.50;;;8.70;75.60;;;;;;4975672;28;20449;-75
2022/11/22 15:25:33;;;;;;;0.73;0.60;;;8.60;75.80;;;;;;4975649;28;20438;-75
2022/11/22 15:28:00;;;;;;;0.60;0.60;;;8.60;75.80;;;;;;4975545;28;20451;-75
2022/11/22 15:30:28;;;;;;;0.60;0.60;;;8.60;75.90;;;;;;4975425;28;20450;-75
2022/11/22 15:32:59;;;;;;;1.30;1.30;;;8.50;75.70;;;;;;4975434;28;20459;-75
2022/11/22 15:35:35;;;;;;;1.43;1.37;;;8.40;76.30;;;;;;4975485;28;20497;-75
2022/11/22 15:38:06;;;;;;;0.70;0.70;;;8.40;76.60;;;;;;4975438;28;20442;-75
2022/11/22 15:40:36;;;;;;;0.70;0.70;;;8.40;76.60;;;;;;4975224;28;20450;-75
2022/11/22 15:43:04;;;;;;;0.60;0.60;;;8.40;76.40;;;;;;4975320;28;20453;-75
2022/11/22 15:45:37;;;;;;;0.60;0.60;;;8.30;76.80;;;;;;4975262;28;20536;-75
2022/11/22 15:48:07;;;;;;;0.50;0.50;;;8.30;76.60;;;;;;4975243;28;20450;-74
2022/11/22 15:50:34;;;;;;;0.50;0.50;;;8.20;77.10;;;;;;4974778;28;20965;-75
2022/11/22 15:53:17;;;;;;;0.60;0.60;;;8.20;76.90;;;;;;4975136;28;20457;-75
2022/11/22 15:55:56;;;;;;;0.60;0.50;;;8.20;77.30;;;;;;4975109;28;20433;-75
2022/11/22 15:58:50;;;;;;;0.50;0.50;;;8.20;77.60;;;;;;4974772;28;20906;-75
2022/11/22 16:01:18;;;;;;;0.80;0.80;;;8.20;77.40;;;;;;4961987;28;20490;-75
2022/11/22 16:03:49;;;;;;;0.50;0.50;;;8.10;77.60;;;;;;4974987;28;20830;-75
2022/11/22 16:06:19;;;;;;;0.70;0.70;;;8.10;78.30;;;;;;4974987;28;20430;-75
2022/11/22 16:08:48;;;;;;;0.60;0.60;;;8.00;77.80;;;;;;4974603;28;20965;-75
2022/11/22 16:11:20;;;;;;;0.53;0.53;;;8.00;78.20;;;;;;4974762;28;20462;-75
2022/11/22 16:13:47;;;;;;;0.60;0.60;;;8.00;77.90;;;;;;4974918;28;20466;-75
2022/11/22 16:16:20;;;;;;;0.60;0.60;;;8.10;77.90;;;;;;4976363;28;20472;-75
2022/11/22 16:18:47;;;;;;;0.60;0.60;;;7.90;77.90;;;;;;4974481;28;20805;-75
2022/11/22 16:21:23;;;;;;;0.50;0.50;;;7.90;78.10;;;;;;4974645;28;20490;-75
2022/11/22 16:24:11;;;;;;;0.60;0.60;;;7.90;78.40;;;;;;4975764;28;20453;-75
2022/11/22 16:26:39;;;;;;;0.60;0.60;;;7.90;78.20;;;;;;4974032;28;20457;-75
2022/11/22 16:29:27;;;;;;;0.60;0.60;;;7.80;78.60;;;;;;4974974;28;20453;-75
2022/11/22 16:31:59;;;;;;;0.60;0.60;;;7.80;79.10;;;;;;4974578;28;20477;-75
2022/11/22 16:34:26;;;;;;;0.50;0.50;;;7.80;78.90;;;;;;4974308;28;20431;-75
2022/11/22 16:36:53;;;;;;;0.60;0.60;;;7.90;79.40;;;;;;4974528;28;20445;-75
2022/11/22 16:39:21;;;;;;;0.60;0.60;;;7.90;79.10;;;;;;4974571;28;20446;-76
2022/11/22 16:41:49;;;;;;;0.60;0.60;;;8.00;78.80;;;;;;4974364;28;20544;-76
2022/11/22 16:44:18;;;;;;;0.60;0.60;;;8.20;79.00;;;;;;4974221;28;20443;-76
2022/11/22 16:46:46;;;;;;;0.50;0.50;;;8.30;78.20;;;;;;4974459;28;20450;-76
2022/11/22 16:49:17;;;;;;;0.60;0.60;;;8.30;77.80;;;;;;4974431;28;20462;-76
2022/11/22 16:51:45;;;;;;;0.60;0.60;;;8.30;78.50;;;;;;4974398;28;20501;-76
2022/11/22 16:54:14;;;;;;;0.60;0.60;;;8.40;78.10;;;;;;4974407;28;20508;-76
2022/11/22 16:56:41;;;;;;;0.60;0.60;;;8.40;78.00;;;;;;4974402;28;20793;-76
2022/11/22 16:59:11;;;;;;;0.50;0.50;;;8.40;78.00;;;;;;4974333;28;20446;-76
2022/11/22 17:01:41;;;;;;;0.50;0.50;;;8.30;78.30;;;;;;4973948;28;20580;-76
2022/11/22 17:04:19;;;;;;;0.60;0.60;;;8.40;78.50;;;;;;4974382;28;20455;-76
2022/11/22 17:06:46;;;;;;;0.60;0.60;;;8.50;78.10;;;;;;4974353;28;20434;-76
2022/11/22 17:09:13;;;;;;;0.60;0.60;;;8.40;78.20;;;;;;4974287;28;20445;-76
2022/11/22 17:11:44;;;;;;;0.60;0.60;;;8.30;78.40;;;;;;4974185;28;20470;-76
2022/11/22 17:14:14;;;;;;;0.50;0.50;;;8.30;78.90;;;;;;4974284;28;20481;-76
2022/11/22 17:16:41;;;;;;;0.70;0.70;;;8.30;79.00;;;;;;4974208;28;20486;-76
2022/11/22 17:19:07;;;;;;;0.57;0.57;;;8.40;78.60;;;;;;4974204;28;20450;-76
2022/11/22 17:21:34;;;;;;;0.60;0.60;;;8.30;78.30;;;;;;4974039;28;20493;-76
2022/11/22 17:24:03;;;;;;;0.90;0.60;;;8.30;78.90;;;;;;4974199;28;20488;-76
2022/11/22 17:26:31;;;;;;;0.57;0.57;;;8.30;79.30;;;;;;4974150;28;20450;-76
2022/11/22 17:28:58;;;;;;;0.60;0.60;;;8.30;79.10;;;;;;4973826;28;20881;-76
2022/11/22 17:31:28;;;;;;;0.60;0.60;;;8.40;79.30;;;;;;4973731;28;20887;-76
2022/11/22 17:33:56;;;;;;;0.70;0.60;;;8.50;79.10;;;;;;4974058;28;20445;-76